Dauntless Aviation
Greetings, Guest! To participate, [sign up for a free account] or [log in]
Airports South America Argentina
SABE
AEP

Aeroparque Jorge Newbery

Buenos Aires, ARGENTINA

Airport Info
Edit

Location

Latitude / Longitude: 34°33'33"S / 58°24'56"W
  34°33.552'S / 58°24.936'W
  -34.5592 / -58.4156

Nearby radio navigation aids

FDO SAN FERNANDO VOR/DME. 132.7° 10.6nm from FDO to field.
OP AEROPARQUE JORGE NEWBERY NDB. 131.1° 4.3nm from OP to field.

Runway Information

Runway 13 /31

Dimensions: 6890 x 131 ft.
Surface: ASP
 
Runway 13
Runway 31
Latitude: -34.553942 -34.563844
Longitude: -58.425247 -58.407506
Elevation: 18 ft. 18 ft.
Runway true heading: 126.3 306.3
 

Instrument Procedures

STARs (Standard Terminal Arrivals)

  STAR Rwy 13/16 PAGON7C SANANTONIO7C ASADA7C VALOS8C
  STAR Rwy 13/16 SURBO7A SARGO7C KOVUK7C TENIL7C BELGRANO7C
  STAR Rwy 31 SURBO2B SARGO7D KOVUK7D TENIL7D BELGRANO7D VALOS7D ASADA7D
  STAR Rwy 31 PAGON7D SANANTONIO7D

IAPs (Instrument Approach Procedures)

  VOR (DME) ILS (DME) Rwy 13 (From VANAR)
  VOR (DME) ILS (DME) Rwy 13
  LI ILS (DME) Rwy 13
  VOR (DME) LO LI Rwy 13 (From VANAR)
  LI LO LI Rwy 13
  LI Rwy 13 (From QUILMES)
  LI Rwy 31

Departure Procedures

  SID Rwy 13/31
  SID Rwy 13/31 Textual Description
  SID Rwy 13/31 LANDA3B BIVAM3B ATOVO3B
  SID 13/31 LANDA3B BIVAM3B ATOVO3B Textual Description
  SID Rwy 13/31 KUKEN7 SUROBO7 DORVO7 LAPLATA7
  SID Rwy 13/31 KUKEN7 SUROBO7 DORVO7 LAPLATA7 Textual Description
  SID S Rwy 13/31
  SID Rwy 13/31 Textual Description
Satellite photo at:
Airport distance calculator
From:
Weather Reports

METAR

SADF
10.6nm W
SADF 291800Z 32007KT 9999 SCT020 BKN200 20/16 Q1016
SAEZ
16.2nm S
SAEZ 291800Z 35007KT 300V030 6000 BKN016 OVC100 18/14 Q1017
SUCA
30.3nm NE
SUCA 291800Z 36008KT 9999 SCT026 BKN200 XX/XX QXXXX

TAF

SABE
TAF SABE 291700Z 2918/3018 36010KT 9000 -DZ BR BKN012 TX19/3018Z TN11/3010Z BECMG 2920/2922 4000 DZ BR BKN009 TEMPO 3007/3011 25005KT 0800 BCFG BECMG 3011/3013 18005KT 9999 SCT020
SADF
10.6nm W
TAF SADF 291710Z 2918/3018 32010KT 9999 BKN020 TX18/2918Z TN11/3010Z BECMG 3002/3004 35005KT 5000 BR BKN010 PROB30 TEMPO 3006/3012 0800 FG BECMG 3013/3015 18005KT 9999 SCT020
SAEZ
16.2nm S
TAF SAEZ 291700Z 2918/3018 36010KT 9000 -RADZ SCT010 BKN030 TX18/2918Z TN10/3010Z PROB30 2920/3003 30005KT 8000 -SHRA SCT008 BKN020 FEW050CB TEMPO 3003/3009 23005KT 2000 BR NSC BECMG 3009/3012 18005KT CAVOK
SUCA
30.3nm NE
SUCA 291700Z 2918/3018 36010KT 9999 FEW025 SCT070 SCT200 TX19/3018Z TN13/3010Z PROB30 TEMPO 2918/3000 7000 DZRA BKN010 OVC060 BECMG 3003/3005 30005KT BECMG 3012/3014 24005KT
Safelog

 

Dauntless Aviation

© 2007-2014 Dauntless Aviation, all rights reserved
Information provided via PilotNav comes from a variety of official and unofficial data sources. As errors are possible, do not use PilotNav for primary flight planning purposes. Verify any information that you receive via PilotNav with current and canonical charts and other official documents. The material in this database is subject to database copyrights held by Dauntless Aviation and may not be copied without the express permission of Dauntless Aviation - licenses for use of part of all of this data are available for purchase; enquire via the Dauntless Aviation helpdesk. A number of mechanisms and markers exist in the database to protect against and identify infringement / copyright. Automated queries against this website are stictly prohibited, and all activity is logged and analyzed.